Time;durP1;ratioP1;P1;durP2;ratioP2;P2;SDS_P1;SDS_P2;PMS_P1;PMS_P2;Temp;Humidity;BMP_temperature;BMP_pressure;BME280_temperature;BME280_humidity;BME280_pressure;Samples;Min_cycle;Max_cycle;Signal;HPM_P1;HPM_P2
2022/09/01 00:02:28;;;;;;;2.83;0.90;;;;;;;14.59;66.46;101693.19;7399070;19;20022;-66
2022/09/01 00:04:58;;;;;;;2.30;0.80;;;;;;;14.58;66.29;101700.22;7396104;19;20485;-66
2022/09/01 00:07:28;;;;;;;2.85;0.90;;;;;;;14.57;66.53;101698.50;7398104;19;20485;-66
2022/09/01 00:10:00;;;;;;;3.60;0.85;;;;;;;14.58;66.60;101705.50;7398780;19;20010;-66
2022/09/01 00:12:29;;;;;;;1.38;0.98;;;;;;;14.57;66.78;101694.97;7398761;19;20022;-67
2022/09/01 00:14:58;;;;;;;1.38;0.65;;;;;;;14.57;66.67;101703.78;7395581;19;20502;-66
2022/09/01 00:17:27;;;;;;;3.85;0.93;;;;;;;14.58;66.54;101700.22;7398104;19;20032;-66
2022/09/01 00:19:56;;;;;;;3.28;0.93;;;;;;;14.59;66.85;101691.38;7398061;19;20014;-66
2022/09/01 00:22:24;;;;;;;0.93;0.73;;;;;;;14.60;66.83;101695.78;7398028;19;20031;-66
2022/09/01 00:24:53;;;;;;;3.65;0.90;;;;;;;14.61;67.16;101696.66;7395653;19;20032;-66
2022/09/01 00:27:24;;;;;;;2.08;1.00;;;;;;;14.62;67.03;101696.63;7397523;19;20018;-67
2022/09/01 00:29:53;;;;;;;3.38;1.38;;;;;;;14.64;67.01;101701.84;7398215;19;20031;-66
2022/09/01 00:32:21;;;;;;;1.55;0.88;;;;;;;14.65;67.06;101698.34;7395809;19;20026;-66
2022/09/01 00:34:50;;;;;;;2.58;1.63;;;;;;;14.65;67.13;101703.63;7395361;19;20014;-66
2022/09/01 00:37:18;;;;;;;2.20;0.90;;;;;;;14.66;67.29;101702.72;7397600;19;20014;-66
2022/09/01 00:39:47;;;;;;;1.40;0.98;;;;;;;14.66;67.28;101693.03;7397027;19;20023;-66
2022/09/01 00:42:15;;;;;;;1.42;0.93;;;;;;;14.66;67.21;101702.72;7397011;19;20576;-67
2022/09/01 00:44:47;;;;;;;1.40;0.80;;;;;;;14.64;67.43;101701.84;7395537;19;20481;-67
2022/09/01 00:47:16;;;;;;;2.25;0.80;;;;;;;14.60;67.60;101698.41;7397554;19;20082;-66
2022/09/01 00:49:48;;;;;;;2.35;1.02;;;;;;;14.58;67.66;101696.72;7397024;19;20035;-66
2022/09/01 00:52:25;;;;;;;0.93;0.70;;;;;;;14.60;67.77;101701.06;7396317;19;20023;-67
2022/09/01 00:54:59;;;;;;;1.65;0.90;;;;;;;14.62;67.59;101706.28;7395200;19;20040;-66
2022/09/01 00:57:28;;;;;;;;;;;;;;;14.63;67.61;101705.41;7396039;19;20023;-66
2022/09/01 01:00:03;;;;;;;3.45;0.90;;;;;;;14.64;67.67;101696.56;7396332;19;20366;-67
2022/09/01 01:02:31;;;;;;;3.30;1.00;;;;;;;14.65;67.56;101698.34;7395068;19;20011;-66
2022/09/01 01:05:02;;;;;;;2.72;0.98;;;;;;;14.65;67.55;101696.56;7394925;19;20018;-66
2022/09/01 01:07:33;;;;;;;2.08;0.75;;;;;;;14.68;67.86;101692.97;7397430;19;20035;-66
2022/09/01 01:10:02;;;;;;;3.88;0.82;;;;;;;14.70;67.51;101690.28;7398842;19;20010;-67
2022/09/01 01:12:36;;;;;;;3.50;1.02;;;;;;;14.71;67.65;101692.91;7396738;19;20011;-67
2022/09/01 01:15:09;;;;;;;2.42;1.00;;;;;;;14.73;67.88;101691.09;7395109;19;20516;-66
2022/09/01 01:17:37;;;;;;;3.30;1.02;;;;;;;14.73;67.88;101693.72;7395957;19;20074;-66
2022/09/01 01:23:04;;;;;;;8.18;0.90;;;;;;;14.78;67.65;101689.19;7396188;19;20013;-67
2022/09/01 01:25:40;;;;;;;3.17;0.90;;;;;;;14.79;67.74;101685.66;7394773;19;20077;-67
2022/09/01 01:28:12;;;;;;;1.20;0.68;;;;;;;14.82;67.78;101695.28;7394742;19;20014;-66
2022/09/01 01:30:43;;;;;;;2.85;1.05;;;;;;;14.84;67.65;101690.84;7394570;19;20018;-66
2022/09/01 01:33:12;;;;;;;2.92;0.93;;;;;;;14.82;67.66;101690.88;7394185;19;20078;-67
2022/09/01 01:35:41;;;;;;;1.20;0.82;;;;;;;14.86;67.78;101690.81;7393508;19;20015;-66
2022/09/01 01:38:10;;;;;;;1.00;0.73;;;;;;;14.84;67.55;101696.13;7395721;19;20018;-67
2022/09/01 01:40:41;;;;;;;2.63;1.33;;;;;;;14.89;67.51;101696.03;7395476;19;20015;-66
2022/09/01 01:43:10;;;;;;;1.58;0.80;;;;;;;14.88;67.44;101686.34;7394903;19;20501;-67
2022/09/01 01:45:39;;;;;;;2.28;1.10;;;;;;;14.88;67.71;101689.84;7395324;19;20029;-66
2022/09/01 01:48:09;;;;;;;1.25;0.80;;;;;;;14.89;67.27;101690.75;7394970;19;20453;-66
2022/09/01 01:50:38;;;;;;;2.35;0.82;;;;;;;14.90;67.28;101689.81;7395367;19;20070;-66
2022/09/01 01:53:10;;;;;;;2.17;0.70;;;;;;;14.89;67.35;101686.31;7393634;19;20018;-66
2022/09/01 01:55:42;;;;;;;0.93;0.60;;;;;;;14.90;67.24;101688.06;7392973;19;20010;-66
2022/09/01 01:58:11;;;;;;;3.25;1.08;;;;;;;14.89;67.33;101686.31;7393847;19;20022;-66
2022/09/01 02:00:41;;;;;;;1.33;0.63;;;;;;;14.89;67.19;101685.47;7392894;19;20014;-66
2022/09/01 02:03:11;;;;;;;0.80;0.50;;;;;;;14.89;67.38;101688.97;7393953;19;20022;-66
2022/09/01 02:05:41;;;;;;;1.67;0.68;;;;;;;14.88;67.26;101686.34;7395636;19;20040;-66
2022/09/01 02:08:12;;;;;;;1.50;0.73;;;;;;;14.87;66.85;101685.47;7392676;19;20335;-66
2022/09/01 02:10:46;;;;;;;1.88;0.80;;;;;;;14.86;66.83;101689.03;7395498;19;20086;-66
2022/09/01 02:13:18;;;;;;;2.05;0.65;;;;;;;14.85;66.97;101687.31;7397136;19;20511;-67
2022/09/01 02:15:55;;;;;;;1.38;0.77;;;;;;;14.83;66.79;101682.03;7400896;19;20074;-67
2022/09/01 02:18:26;;;;;;;2.83;1.17;;;;;;;14.84;66.94;101682.91;7400270;19;20019;-66
2022/09/01 02:20:57;;;;;;;2.08;1.35;;;;;;;14.85;66.70;101689.06;7399035;19;20014;-66
2022/09/01 02:23:26;;;;;;;1.33;0.90;;;;;;;14.85;66.55;101682.03;7398823;19;20018;-66
2022/09/01 02:26:01;;;;;;;2.75;0.80;;;;;;;14.86;66.68;101688.16;7401507;19;20015;-66
2022/09/01 02:28:31;;;;;;;1.40;0.80;;;;;;;14.85;66.67;101686.41;7401437;19;20477;-66
2022/09/01 02:31:02;;;;;;;2.33;0.80;;;;;;;14.83;66.56;101684.69;7401308;19;20478;-66
2022/09/01 02:33:32;;;;;;;1.02;0.70;;;;;;;14.82;66.50;101682.06;7400439;19;20487;-67
2022/09/01 02:36:04;;;;;;;2.00;0.80;;;;;;;14.79;66.33;101680.38;7398575;19;20087;-66
2022/09/01 02:38:32;;;;;;;1.23;0.70;;;;;;;14.78;66.56;101675.16;7401697;19;20031;-66
2022/09/01 02:41:05;;;;;;;2.92;0.70;;;;;;;14.76;66.57;101674.31;7398443;19;20034;-66
2022/09/01 02:43:34;;;;;;;2.65;1.00;;;;;;;14.75;66.26;101668.16;7398923;19;20022;-66
2022/09/01 02:46:05;;;;;;;1.55;0.63;;;;;;;14.76;66.48;101677.81;7400951;19;20018;-66
2022/09/01 02:48:37;;;;;;;1.00;0.85;;;;;;;14.76;66.70;101671.66;7400935;19;20434;-66
2022/09/01 02:51:08;;;;;;;1.67;1.08;;;;;;;14.75;66.23;101670.81;7401637;19;20035;-66
2022/09/01 02:53:43;;;;;;;2.17;0.82;;;;;;;14.76;66.24;101666.38;7398897;19;20038;-67
2022/09/01 02:56:17;;;;;;;3.72;0.75;;;;;;;14.75;66.33;101667.31;7398688;19;20011;-66
2022/09/01 02:58:47;;;;;;;2.30;0.77;;;;;;;14.74;66.43;101661.13;7398151;19;20019;-66
2022/09/01 03:01:19;;;;;;;1.00;0.65;;;;;;;14.74;66.12;101662.91;7401029;19;20019;-66
2022/09/01 03:03:48;;;;;;;1.92;0.75;;;;;;;14.73;65.99;101667.31;7398987;19;20019;-67
2022/09/01 03:06:18;;;;;;;1.95;0.70;;;;;;;14.74;66.44;101665.56;7398072;19;20018;-66
2022/09/01 03:08:47;;;;;;;1.27;0.70;;;;;;;14.73;65.82;101666.47;7398007;19;20014;-66
2022/09/01 03:11:18;;;;;;;2.53;0.80;;;;;;;14.74;66.04;101668.22;7399994;19;20015;-66
2022/09/01 03:13:47;;;;;;;1.10;0.60;;;;;;;14.73;65.79;101671.75;7399394;19;20022;-66
2022/09/01 03:16:16;;;;;;;1.88;0.65;;;;;;;14.74;65.69;101678.78;7397405;19;20014;-66
2022/09/01 03:18:44;;;;;;;1.20;0.68;;;;;;;14.71;65.87;101673.53;7399653;19;20070;-66
2022/09/01 03:21:16;;;;;;;3.30;1.05;;;;;;;14.71;65.77;101674.44;7399768;19;20094;-66
2022/09/01 03:23:46;;;;;;;1.63;0.63;;;;;;;14.68;65.77;101674.50;7397046;19;20023;-66
2022/09/01 03:26:20;;;;;;;4.63;1.30;;;;;;;14.65;65.55;101679.84;7399957;19;20083;-66
2022/09/01 03:28:49;;;;;;;3.50;1.05;;;;;;;14.65;65.71;101667.50;7399461;19;20015;-66
2022/09/01 03:31:18;;;;;;;1.55;1.08;;;;;;;14.65;65.69;101674.56;7399534;19;20035;-66
2022/09/01 03:33:47;;;;;;;1.50;0.70;;;;;;;14.61;65.53;101668.47;7398160;19;20039;-66
2022/09/01 03:36:20;;;;;;;2.78;0.60;;;;;;;14.61;65.76;101671.09;7396360;19;20513;-66
2022/09/01 03:38:57;;;;;;;2.25;0.70;;;;;;;14.61;65.85;101667.59;7398777;19;20078;-66
2022/09/01 03:41:30;;;;;;;1.60;0.90;;;;;;;14.60;65.96;101672.00;7397736;19;20010;-66
2022/09/01 03:44:00;;;;;;;3.50;1.35;;;;;;;14.61;65.76;101672.88;7398001;19;20090;-67
2022/09/01 03:46:30;;;;;;;2.50;1.20;;;;;;;14.60;65.96;101669.38;7396484;19;20018;-66
2022/09/01 03:49:00;;;;;;;2.53;0.80;;;;;;;14.59;66.00;101658.84;7398843;19;20383;-66
2022/09/01 03:51:29;;;;;;;1.98;0.95;;;;;;;14.59;65.95;101666.75;7396322;19;20485;-66
2022/09/01 03:53:59;;;;;;;1.88;1.00;;;;;;;14.57;66.10;101668.56;7397130;19;20015;-66
2022/09/01 03:56:32;;;;;;;2.17;1.00;;;;;;;14.54;66.12;101666.88;7396721;19;20018;-66
2022/09/01 03:59:02;;;;;;;1.37;0.57;;;;;;;14.50;65.95;101663.41;7398374;19;20086;-69
2022/09/01 04:01:33;;;;;;;1.58;1.08;;;;;;;14.47;66.35;101662.66;7398285;19;21121;-66
2022/09/01 04:04:03;;;;;;;2.65;1.00;;;;;;;14.43;66.19;101660.97;7397426;19;20019;-66
2022/09/01 04:06:32;;;;;;;1.10;0.85;;;;;;;14.37;66.56;101659.34;7396245;19;20022;-66
2022/09/01 04:09:01;;;;;;;1.60;0.90;;;;;;;14.33;66.67;101663.84;7398066;19;20070;-66
2022/09/01 04:11:33;;;;;;;1.65;0.90;;;;;;;14.30;66.77;101663.03;7395606;19;20015;-66
2022/09/01 04:14:02;;;;;;;2.08;0.90;;;;;;;14.26;67.21;101661.38;7396678;19;20022;-66
2022/09/01 04:19:24;;;;;;;4.00;1.27;;;;;;;14.16;67.32;101665.97;7397971;19;20050;-66
2022/09/01 04:21:55;;;;;;;4.10;0.85;;;;;;;14.11;67.62;101667.84;7397130;19;20588;-66
2022/09/01 04:24:26;;;;;;;1.38;0.90;;;;;;;14.06;67.52;101667.06;7396301;19;20017;-65
2022/09/01 04:27:00;;;;;;;1.70;1.20;;;;;;;14.00;67.85;101666.31;7396828;19;20094;-66
2022/09/01 04:29:30;;;;;;;4.50;1.60;;;;;;;13.95;67.88;101662.03;7397496;19;20022;-66
2022/09/01 04:32:02;;;;;;;3.30;1.00;;;;;;;13.91;68.22;101669.13;7396604;19;20010;-66
2022/09/01 04:34:35;;;;;;;3.63;1.20;;;;;;;13.88;68.28;101666.56;7394251;19;20010;-65
2022/09/01 04:37:05;;;;;;;4.45;1.10;;;;;;;13.83;68.31;101668.44;7391763;19;20090;-66
2022/09/01 04:39:35;;;;;;;2.88;0.73;;;;;;;13.77;68.66;101672.03;7396331;19;20018;-67
2022/09/01 04:42:08;;;;;;;1.23;0.70;;;;;;;13.71;68.95;101669.56;7394551;19;20153;-66
2022/09/01 04:44:38;;;;;;;2.08;1.15;;;;;;;13.68;68.91;101669.59;7394999;19;20019;-66
2022/09/01 04:47:13;;;;;;;3.47;1.10;;;;;;;13.64;68.95;101673.22;7398094;19;20026;-66
2022/09/01 04:49:42;;;;;;;2.33;1.23;;;;;;;13.60;69.15;101676.81;7397519;19;20366;-66
2022/09/01 04:52:11;;;;;;;1.48;1.13;;;;;;;13.56;69.37;101676.00;7396050;19;20466;-66
2022/09/01 04:54:40;;;;;;;2.72;1.13;;;;;;;13.52;69.81;101680.47;7394617;19;20014;-66
2022/09/01 04:57:11;;;;;;;1.33;0.90;;;;;;;13.49;70.01;101677.88;7396068;19;20014;-66
2022/09/01 04:59:40;;;;;;;2.45;1.15;;;;;;;13.45;70.08;101678.81;7393555;19;20035;-66
2022/09/01 05:02:09;;;;;;;3.13;1.10;;;;;;;13.44;70.44;101678.88;7392891;19;20144;-66
2022/09/01 05:04:45;;;;;;;5.10;0.98;;;;;;;13.41;70.54;101677.16;7393970;19;20018;-65
2022/09/01 05:07:14;;;;;;;2.17;0.90;;;;;;;13.39;70.92;101678.09;7394116;19;20489;-66
2022/09/01 05:09:44;;;;;;;3.28;1.20;;;;;;;13.35;71.08;101677.22;7394772;19;20082;-66
2022/09/01 05:12:15;;;;;;;1.92;0.88;;;;;;;13.32;71.18;101680.78;7393170;19;20040;-66
2022/09/01 05:14:47;;;;;;;1.65;0.80;;;;;;;13.31;71.41;101673.78;7392712;19;20036;-66
2022/09/01 05:17:16;;;;;;;1.85;1.00;;;;;;;13.31;71.21;101681.69;7393991;19;20381;-66
2022/09/01 05:19:49;;;;;;;1.38;0.70;;;;;;;13.30;71.48;101679.09;7392828;19;20505;-69
2022/09/01 05:22:20;;;;;;;1.70;0.80;;;;;;;13.27;71.93;101679.13;7393264;19;20065;-67
2022/09/01 05:24:50;;;;;;;3.85;0.88;;;;;;;13.27;72.02;101693.19;7392413;19;20086;-66
2022/09/01 05:27:21;;;;;;;2.55;1.00;;;;;;;13.28;72.08;101683.50;7396101;19;20011;-66
2022/09/01 05:29:50;;;;;;;2.65;1.02;;;;;;;13.28;72.20;101688.78;7393996;19;20018;-66
2022/09/01 05:32:20;;;;;;;1.83;0.60;;;;;;;13.29;72.44;101680.84;7395484;19;20513;-66
2022/09/01 05:34:49;;;;;;;4.72;0.90;;;;;;;13.31;72.55;101686.09;7392701;19;20480;-66
2022/09/01 05:37:17;;;;;;;3.17;1.15;;;;;;;13.31;72.75;101686.97;7394054;19;20116;-66
2022/09/01 05:39:46;;;;;;;4.35;1.13;;;;;;;13.33;72.84;101684.28;7394303;19;20090;-66
2022/09/01 05:42:14;;;;;;;2.83;1.20;;;;;;;13.34;73.25;101686.91;7393969;19;20014;-66
2022/09/01 05:44:46;;;;;;;3.15;0.93;;;;;;;13.37;73.11;101683.38;7392616;19;20022;-66
2022/09/01 05:47:15;;;;;;;5.57;1.38;;;;;;;13.40;73.22;101688.59;7391694;19;20015;-72
2022/09/01 05:49:43;;;;;;;2.65;1.10;;;;;;;13.43;73.48;101688.53;7393689;19;20408;-66
2022/09/01 05:52:12;;;;;;;1.90;1.10;;;;;;;13.44;73.52;101682.34;7392405;19;20023;-66
2022/09/01 05:54:40;;;;;;;1.10;0.77;;;;;;;13.49;73.58;101685.78;7391975;19;20023;-66
2022/09/01 05:57:09;;;;;;;1.17;0.82;;;;;;;13.49;73.45;101683.13;7393153;19;20023;-67
2022/09/01 05:59:40;;;;;;;1.65;0.80;;;;;;;13.56;73.59;101683.03;7393750;19;20082;-68
2022/09/01 06:02:11;;;;;;;2.28;0.80;;;;;;;13.57;73.56;101677.72;7395185;19;20021;-67
2022/09/01 06:04:42;;;;;;;1.10;0.80;;;;;;;13.62;73.60;101685.53;7392142;19;20384;-66
2022/09/01 06:07:13;;;;;;;1.60;0.90;;;;;;;13.64;73.66;101684.63;7396253;19;20031;-68
2022/09/01 06:09:44;;;;;;;1.92;0.90;;;;;;;13.68;73.49;101680.16;7392818;19;20014;-66
2022/09/01 06:12:16;;;;;;;1.20;0.85;;;;;;;13.71;73.66;101685.38;7394144;19;20090;-66
2022/09/01 06:14:44;;;;;;;3.55;1.08;;;;;;;13.74;73.51;101690.59;7392915;19;20037;-66
2022/09/01 06:17:17;;;;;;;2.30;0.90;;;;;;;13.77;73.77;101693.16;7392764;19;20035;-66
2022/09/01 06:19:46;;;;;;;3.08;1.10;;;;;;;13.80;73.42;101690.47;7392070;19;20044;-66
2022/09/01 06:22:16;;;;;;;2.15;0.93;;;;;;;13.81;73.44;101686.03;7392733;19;20010;-67
2022/09/01 06:24:46;;;;;;;2.08;1.10;;;;;;;13.88;73.44;101689.44;7392144;19;20027;-66
2022/09/01 06:27:19;;;;;;;3.08;0.88;;;;;;;13.93;73.22;101690.22;7394959;19;20014;-67
2022/09/01 06:29:53;;;;;;;2.42;1.10;;;;;;;13.96;73.32;101680.47;7395040;19;20014;-67
2022/09/01 06:32:24;;;;;;;1.15;0.98;;;;;;;13.99;73.31;101680.41;7391331;19;20014;-66
2022/09/01 06:34:53;;;;;;;3.30;1.00;;;;;;;14.04;73.21;101688.22;7392661;19;20019;-66
2022/09/01 06:37:21;;;;;;;1.75;0.82;;;;;;;14.07;73.16;101685.50;7391353;19;20386;-67
2022/09/01 06:39:51;;;;;;;3.63;1.08;;;;;;;14.11;72.88;101695.09;7393467;19;20022;-67
2022/09/01 06:42:21;;;;;;;1.95;0.90;;;;;;;14.16;72.80;101695.84;7391403;19;20027;-67
2022/09/01 06:44:51;;;;;;;2.70;0.80;;;;;;;14.21;72.78;101697.56;7391756;19;20041;-67
2022/09/01 06:47:20;;;;;;;3.80;1.00;;;;;;;14.23;72.75;101696.63;7391519;19;20010;-67
2022/09/01 06:49:52;;;;;;;2.15;1.08;;;;;;;14.29;72.33;101698.22;7393149;19;20035;-66
2022/09/01 06:52:22;;;;;;;2.70;0.80;;;;;;;14.33;72.45;101700.78;7392871;19;20509;-70
2022/09/01 06:54:52;;;;;;;2.28;0.80;;;;;;;14.39;72.29;101707.69;7391441;19;20041;-69
2022/09/01 06:57:21;;;;;;;4.38;0.90;;;;;;;14.43;72.21;101706.75;7390997;19;20022;-69
2022/09/01 06:59:50;;;;;;;1.60;0.68;;;;;;;14.48;72.03;101710.13;7395985;19;20082;-67
2022/09/01 07:02:18;;;;;;;5.32;1.10;;;;;;;14.53;71.79;101711.78;7400357;19;20010;-67
2022/09/01 07:04:47;;;;;;;4.32;1.00;;;;;;;14.59;71.75;101716.94;7397942;19;20388;-68
2022/09/01 07:07:18;;;;;;;3.45;1.40;;;;;;;14.63;71.31;101713.31;7399945;19;20018;-68
2022/09/01 07:09:47;;;;;;;2.00;0.90;;;;;;;14.68;71.29;101719.38;7400641;19;20078;-68
2022/09/01 07:12:19;;;;;;;1.67;0.60;;;;;;;14.73;71.09;101722.78;7400101;19;20024;-67
2022/09/01 07:14:48;;;;;;;1.83;1.02;;;;;;;14.79;70.95;101717.38;7397890;19;20026;-67
2022/09/01 07:17:18;;;;;;;1.30;0.80;;;;;;;14.86;70.85;101722.50;7397178;19;20365;-69
2022/09/01 07:19:46;;;;;;;1.20;0.60;;;;;;;14.92;70.60;101725.00;7396532;19;20015;-67
2022/09/01 07:22:18;;;;;;;1.20;0.77;;;;;;;14.97;70.54;101713.44;7396055;19;20025;-68
2022/09/01 07:24:47;;;;;;;1.75;0.73;;;;;;;15.02;70.02;101726.50;7396311;19;20082;-68
2022/09/01 07:27:16;;;;;;;1.98;0.77;;;;;;;15.06;69.69;101720.22;7396544;19;20018;-68
2022/09/01 07:29:45;;;;;;;4.15;0.90;;;;;;;15.13;69.23;101724.47;7400314;19;20018;-69
2022/09/01 07:32:16;;;;;;;2.55;1.10;;;;;;;15.18;68.90;101716.44;7399407;19;20040;-69
2022/09/01 07:34:52;;;;;;;2.15;0.85;;;;;;;15.24;68.59;101718.03;7397468;19;20025;-68
2022/09/01 07:37:23;;;;;;;1.80;0.80;;;;;;;15.28;68.44;101709.13;7396891;19;20019;-68
2022/09/01 07:39:51;;;;;;;1.73;0.70;;;;;;;15.34;68.17;101713.38;7397736;19;20026;-68
2022/09/01 07:42:20;;;;;;;2.30;0.80;;;;;;;15.38;68.23;101713.28;7403091;19;20035;-69
2022/09/01 07:44:49;;;;;;;3.20;0.68;;;;;;;15.44;67.84;101714.88;7400188;19;20371;-69
2022/09/01 07:47:17;;;;;;;2.33;0.68;;;;;;;15.48;67.44;101709.47;7399441;19;20500;-68
2022/09/01 07:49:46;;;;;;;2.70;0.65;;;;;;;15.54;67.12;101712.84;7398730;19;20031;-68
2022/09/01 07:52:14;;;;;;;2.05;1.02;;;;;;;15.59;66.84;101714.44;7396726;19;20095;-68
2022/09/01 07:54:45;;;;;;;4.63;1.00;;;;;;;15.67;66.86;101713.38;7395785;19;20036;-68
2022/09/01 07:57:14;;;;;;;2.55;0.80;;;;;;;15.74;66.25;101714.94;7397222;19;20026;-68
2022/09/01 07:59:42;;;;;;;2.80;0.60;;;;;;;15.80;66.08;101707.69;7397991;19;20010;-68
2022/09/01 08:02:11;;;;;;;2.65;1.52;;;;;;;15.87;66.16;101712.84;7397228;19;20361;-68
2022/09/01 08:04:40;;;;;;;3.38;1.02;;;;;;;15.92;65.64;101717.13;7395902;19;20014;-68
2022/09/01 08:07:11;;;;;;;1.88;0.60;;;;;;;15.97;65.15;101714.31;7398941;19;20014;-69
2022/09/01 08:09:39;;;;;;;2.38;1.05;;;;;;;16.01;64.65;101712.47;7398582;19;20033;-69
2022/09/01 08:12:11;;;;;;;2.70;0.70;;;;;;;16.11;64.05;101720.09;7397706;19;20515;-68
2022/09/01 08:14:39;;;;;;;2.67;0.80;;;;;;;16.18;63.62;101720.78;7396173;19;20035;-68
2022/09/01 08:17:08;;;;;;;1.63;0.60;;;;;;;16.25;63.43;101721.44;7396298;19;20391;-68
2022/09/01 08:19:36;;;;;;;5.13;2.38;;;;;;;16.32;63.04;101716.84;7397835;19;20035;-68
2022/09/01 08:22:05;;;;;;;1.50;0.55;;;;;;;16.38;62.33;101722.81;7397204;19;20035;-68
2022/09/01 08:24:33;;;;;;;1.90;0.80;;;;;;;16.42;61.86;101713.88;7395698;19;20098;-68
2022/09/01 08:27:03;;;;;;;1.52;0.63;;;;;;;16.51;61.69;101714.50;7397260;19;20095;-69
2022/09/01 08:29:34;;;;;;;1.23;0.70;;;;;;;16.56;61.03;101710.78;7396720;19;20018;-68
2022/09/01 08:32:02;;;;;;;3.67;0.82;;;;;;;16.64;61.40;101713.19;7394976;19;20521;-68
2022/09/01 08:34:33;;;;;;;2.15;0.80;;;;;;;16.70;61.21;101710.34;7394633;19;20019;-69
2022/09/01 08:37:02;;;;;;;3.05;0.57;;;;;;;16.78;60.60;101718.94;7395612;19;20022;-69
2022/09/01 08:39:31;;;;;;;1.90;0.90;;;;;;;16.86;60.30;101715.19;7396240;19;20014;-69
2022/09/01 08:42:09;;;;;;;2.67;0.90;;;;;;;16.93;60.16;101708.75;7395932;19;20040;-68
2022/09/01 08:44:47;;;;;;;1.73;0.60;;;;;;;17.01;59.29;101709.38;7394369;19;20031;-68
2022/09/01 08:47:19;;;;;;;1.80;1.15;;;;;;;17.07;59.25;101706.53;7397368;19;20078;-66
2022/09/01 08:49:50;;;;;;;2.47;0.88;;;;;;;17.14;58.67;101706.34;7397174;19;20015;-67
2022/09/01 08:52:28;;;;;;;1.58;0.52;;;;;;;17.20;57.88;101706.09;7396276;19;20034;-68
2022/09/01 08:55:02;;;;;;;2.67;0.60;;;;;;;17.28;57.31;101703.22;7393571;19;20428;-67
2022/09/01 08:57:36;;;;;;;5.15;0.77;;;;;;;17.35;57.70;101710.00;7394670;19;20363;-68
2022/09/01 09:00:12;;;;;;;1.23;0.57;;;;;;;17.42;57.10;101701.78;7396259;19;20424;-68
2022/09/01 09:02:52;;;;;;;3.30;1.25;;;;;;;17.49;56.87;101706.88;7396358;19;20018;-68
2022/09/01 09:05:38;;;;;;;2.05;0.82;;;;;;;17.56;56.69;101708.41;7394397;19;20019;-68
2022/09/01 09:08:48;;;;;;;2.05;0.47;;;;;;;17.64;56.63;101697.50;7396082;19;20035;-68
2022/09/01 09:11:31;;;;;;;2.08;0.60;;;;;;;17.71;56.47;101702.53;7394461;19;20022;-68
2022/09/01 09:14:11;;;;;;;2.15;0.93;;;;;;;17.81;56.23;101703.06;7394436;19;20022;-68
2022/09/01 09:16:46;;;;;;;3.83;0.77;;;;;;;17.88;55.55;101693.97;7395303;19;20379;-68
2022/09/01 09:19:20;;;;;;;1.08;0.50;;;;;;;17.97;54.64;101700.75;7395463;19;20010;-68
2022/09/01 09:21:49;;;;;;;;;;;;;;;18.03;53.39;101696.97;7394365;19;20494;-68
2022/09/01 09:24:26;;;;;;;1.38;0.70;;;;;;;18.08;54.19;101692.34;7394483;19;19922;-67
2022/09/01 09:26:57;;;;;;;0.80;0.47;;;;;;;18.12;53.88;101695.75;7396779;19;20086;-68
2022/09/01 09:29:26;;;;;;;1.70;0.80;;;;;;;18.19;54.27;101694.59;7397098;19;20018;-69
2022/09/01 09:32:08;;;;;;;3.85;0.90;;;;;;;18.26;50.80;101690.81;7394426;19;20010;-68
2022/09/01 09:34:39;;;;;;;1.50;0.60;;;;;;;18.33;52.47;101694.06;7394093;19;20031;-68
2022/09/01 09:37:25;;;;;;;1.50;0.63;;;;;;;18.45;51.76;101690.06;7392991;19;20094;-68
2022/09/01 09:40:25;;;;;;;0.85;0.45;;;;;;;18.55;49.89;101696.72;7393134;19;20022;-67
2022/09/01 09:43:08;;;;;;;2.45;0.47;;;;;;;18.63;50.84;101694.63;7393096;19;20555;-68
2022/09/01 09:45:39;;;;;;;2.77;0.93;;;;;;;18.69;51.01;101689.06;7394591;19;20031;-68
2022/09/01 09:48:27;;;;;;;0.75;0.30;;;;;;;18.77;49.96;101698.53;7394625;19;20433;-68
2022/09/01 09:50:56;;;;;;;1.77;0.47;;;;;;;18.85;49.49;101691.09;7393874;19;20052;-67
2022/09/01 09:53:31;;;;;;;2.05;0.50;;;;;;;18.94;48.41;101689.88;7394306;19;20031;-69
2022/09/01 09:56:02;;;;;;;1.25;0.60;;;;;;;19.01;49.28;101686.03;7395473;19;20063;-68
2022/09/01 09:58:38;;;;;;;3.33;0.60;;;;;;;19.10;47.07;101693.63;7393588;19;20020;-69
2022/09/01 10:01:14;;;;;;;1.00;0.47;;;;;;;19.17;48.55;101692.44;7395468;19;20018;-68
2022/09/01 10:03:49;;;;;;;2.40;0.50;;;;;;;19.29;48.42;101690.19;7392803;19;20019;-68
2022/09/01 10:06:33;;;;;;;3.13;0.93;;;;;;;19.33;48.31;101692.63;7393841;19;20040;-68
2022/09/01 10:09:03;;;;;;;1.52;0.30;;;;;;;19.39;48.58;101685.31;7395333;19;20035;-68
2022/09/01 10:11:38;;;;;;;2.80;0.60;;;;;;;19.45;47.49;101685.91;7393839;19;20077;-69
2022/09/01 10:14:10;;;;;;;2.35;0.50;;;;;;;19.52;47.90;101686.50;7391897;19;20031;-68
2022/09/01 10:16:41;;;;;;;0.65;0.30;;;;;;;19.50;46.65;101677.72;7394971;19;20022;-68
2022/09/01 10:19:16;;;;;;;1.27;0.50;;;;;;;19.56;46.69;101687.22;7393991;19;20498;-68
2022/09/01 10:21:46;;;;;;;2.25;0.55;;;;;;;19.60;46.61;101683.47;7393676;19;20015;-68
2022/09/01 10:24:24;;;;;;;2.15;0.50;;;;;;;19.62;46.39;101682.47;7392581;19;20426;-68
2022/09/01 10:26:57;;;;;;;1.27;0.50;;;;;;;19.68;45.57;101682.22;7395262;19;20375;-68
2022/09/01 10:29:30;;;;;;;1.08;0.68;;;;;;;19.73;46.44;101668.69;7393289;19;20011;-68
2022/09/01 10:31:59;;;;;;;1.35;0.55;;;;;;;19.79;46.44;101667.53;7391320;19;20485;-68
2022/09/01 10:34:36;;;;;;;0.60;0.40;;;;;;;19.81;45.72;101668.34;7392856;19;20347;-68
2022/09/01 10:37:06;;;;;;;3.13;0.57;;;;;;;19.86;45.94;101671.69;7400517;19;20363;-68
2022/09/01 10:39:34;;;;;;;2.05;0.40;;;;;;;19.90;46.06;101672.41;7401122;19;20103;-68
2022/09/01 10:42:06;;;;;;;1.65;0.60;;;;;;;19.96;46.04;101666.81;7401163;19;20031;-68
2022/09/01 10:44:37;;;;;;;1.08;0.50;;;;;;;19.97;45.30;101672.06;7399441;19;20018;-68
2022/09/01 10:47:12;;;;;;;2.55;0.68;;;;;;;20.00;45.08;101677.25;7403658;19;20052;-68
2022/09/01 10:50:02;;;;;;;1.10;0.60;;;;;;;20.06;43.63;101667.25;7401209;19;20417;-68
2022/09/01 10:52:59;;;;;;;1.58;0.43;;;;;;;20.13;44.57;101666.88;7401390;19;20027;-69
2022/09/01 10:55:34;;;;;;;2.38;0.60;;;;;;;20.21;44.49;101673.63;7398609;19;20018;-68
2022/09/01 10:58:23;;;;;;;0.52;0.40;;;;;;;20.27;44.23;101668.00;7398489;19;20489;-68
2022/09/01 11:00:54;;;;;;;1.10;0.60;;;;;;;20.31;44.13;101675.78;7400561;19;20014;-68
2022/09/01 11:03:55;;;;;;;1.10;0.50;;;;;;;20.32;43.25;101672.19;7399049;19;20362;-68
2022/09/01 11:07:00;;;;;;;2.53;0.63;;;;;;;20.36;43.79;101672.91;7400526;19;20027;-68
2022/09/01 11:09:35;;;;;;;1.23;0.70;;;;;;;20.36;43.73;101667.59;7397427;19;20093;-68
2022/09/01 11:12:24;;;;;;;2.55;0.40;;;;;;;20.39;44.13;101669.22;7399158;19;20082;-68
2022/09/01 11:14:55;;;;;;;0.95;0.50;;;;;;;20.33;44.56;101654.38;7396390;19;20022;-67
2022/09/01 11:17:26;;;;;;;2.63;0.80;;;;;;;20.32;43.92;101665.97;7397657;19;20110;-68
2022/09/01 11:20:07;;;;;;;1.73;1.13;;;;;;;20.35;44.09;101661.38;7396974;19;20018;-68
2022/09/01 11:22:42;;;;;;;3.10;0.85;;;;;;;20.43;43.96;101660.13;7398374;19;20015;-68
2022/09/01 11:25:34;;;;;;;1.60;0.85;;;;;;;20.53;43.38;101653.41;7395044;19;20391;-68
2022/09/01 11:28:37;;;;;;;0.98;0.50;;;;;;;20.64;42.76;101661.75;7395393;19;20015;-68
2022/09/01 11:31:28;;;;;;;2.05;0.70;;;;;;;20.78;41.97;101653.09;7398235;19;20022;-67
2022/09/01 11:34:22;;;;;;;0.98;0.30;;;;;;;20.86;42.52;101647.38;7398009;19;20015;-68
2022/09/01 11:36:57;;;;;;;;;;;;;;;20.92;42.25;101656.88;7396083;19;20019;-68
2022/09/01 11:39:41;;;;;;;2.17;0.60;;;;;;;20.97;41.65;101653.00;7397276;19;20342;-68
2022/09/01 11:42:15;;;;;;;0.90;0.55;;;;;;;20.99;42.27;101659.16;7398795;19;20014;-68
2022/09/01 11:44:51;;;;;;;2.42;0.98;;;;;;;21.06;42.43;101654.34;7395816;19;20015;-68
2022/09/01 11:47:23;;;;;;;1.52;0.60;;;;;;;21.18;42.23;101644.88;7397666;19;20019;-68
2022/09/01 11:49:56;;;;;;;2.25;0.70;;;;;;;21.28;41.78;101646.09;7399135;19;20018;-68
2022/09/01 11:52:28;;;;;;;1.30;0.50;;;;;;;21.39;41.66;101650.84;7395965;19;20014;-68
2022/09/01 11:55:00;;;;;;;1.23;0.68;;;;;;;21.44;40.51;101643.47;7396260;19;20036;-68
2022/09/01 11:57:32;;;;;;;1.75;0.70;;;;;;;21.49;40.63;101646.75;7396729;19;20019;-68